Time;durP1;ratioP1;P1;durP2;ratioP2;P2;SDS_P1;SDS_P2;PMS_P1;PMS_P2;Temp;Humidity;BMP_temperature;BMP_pressure;BME280_temperature;BME280_humidity;BME280_pressure;Samples;Min_cycle;Max_cycle;Signal;HPM_P1;HPM_P2
2024/03/14 00:01:13;;;;;;;3.73;3.03;;;11.10;99.90;;;;;;4984792;28;20460;-75
2024/03/14 00:03:39;;;;;;;3.20;2.90;;;11.10;99.90;;;;;;4985004;28;20246;-76
2024/03/14 00:06:05;;;;;;;3.90;3.10;;;11.10;99.90;;;;;;4985216;28;20498;-74
2024/03/14 00:08:30;;;;;;;3.27;2.97;;;11.10;99.90;;;;;;4986111;28;20192;-75
2024/03/14 00:10:56;;;;;;;4.10;3.20;;;11.00;99.90;;;;;;4967238;28;20199;-73
2024/03/14 00:13:23;;;;;;;3.50;3.20;;;11.00;99.90;;;;;;4984539;28;20188;-75
2024/03/14 00:15:49;;;;;;;3.47;2.80;;;11.00;99.90;;;;;;4967814;28;20584;-74
2024/03/14 00:18:16;;;;;;;3.30;3.00;;;11.10;99.90;;;;;;4984911;28;20420;-74
2024/03/14 00:20:42;;;;;;;3.73;2.90;;;11.00;99.90;;;;;;4984823;28;20447;-74
2024/03/14 00:23:08;;;;;;;3.43;3.07;;;11.10;99.90;;;;;;4985159;28;20426;-73
2024/03/14 00:25:34;;;;;;;4.00;3.20;;;11.10;99.90;;;;;;4984356;28;20290;-76
2024/03/14 00:28:00;;;;;;;6.63;3.83;;;11.10;99.90;;;;;;4984651;28;20418;-77
2024/03/14 00:30:27;;;;;;;4.10;3.50;;;11.10;99.90;;;;;;4984789;28;20431;-76
2024/03/14 00:32:53;;;;;;;3.30;3.00;;;11.10;99.90;;;;;;4985322;28;20573;-74
2024/03/14 00:35:19;;;;;;;3.20;2.60;;;11.10;99.90;;;;;;4982492;28;20440;-75
2024/03/14 00:37:46;;;;;;;5.17;3.50;;;11.20;99.90;;;;;;4979284;28;20434;-73
2024/03/14 00:40:11;;;;;;;4.50;4.00;;;11.20;99.90;;;;;;4977308;28;20434;-73
2024/03/14 00:42:44;;;;;;;4.33;3.23;;;11.20;99.90;;;;;;4977573;28;20286;-73
2024/03/14 00:45:13;;;;;;;3.43;3.13;;;11.20;99.90;;;;;;4977013;28;20284;-73
2024/03/14 00:47:40;;;;;;;7.77;5.00;;;11.20;99.90;;;;;;4976003;28;20918;-74
2024/03/14 00:50:08;;;;;;;4.17;3.40;;;11.30;99.90;;;;;;4975145;28;20430;-74
2024/03/14 00:52:35;;;;;;;4.13;3.30;;;11.30;99.90;;;;;;4977134;28;20431;-75
2024/03/14 00:55:02;;;;;;;3.20;2.90;;;11.30;99.90;;;;;;4976860;28;20493;-74
2024/03/14 00:57:28;;;;;;;4.00;3.60;;;11.30;99.90;;;;;;4976904;28;20449;-72
2024/03/14 00:59:54;;;;;;;4.50;3.70;;;11.20;99.90;;;;;;4977689;28;20759;-76
2024/03/14 01:02:19;;;;;;;5.43;3.87;;;11.20;99.90;;;;;;4980907;28;20481;-73
2024/03/14 01:04:45;;;;;;;4.03;3.40;;;11.20;99.90;;;;;;4977564;28;20567;-73
2024/03/14 01:07:11;;;;;;;3.67;3.33;;;11.20;99.90;;;;;;4975693;28;20214;-75
2024/03/14 01:09:39;;;;;;;5.17;3.83;;;11.20;99.90;;;;;;4977487;28;20188;-74
2024/03/14 01:12:04;;;;;;;5.00;3.80;;;11.10;99.90;;;;;;4977875;28;20186;-74
2024/03/14 01:14:30;;;;;;;4.00;3.40;;;11.10;99.90;;;;;;4976809;28;20404;-73
2024/03/14 01:16:56;;;;;;;3.63;2.80;;;11.10;99.90;;;;;;4976403;28;20220;-73
2024/03/14 01:19:21;;;;;;;3.67;3.27;;;11.00;99.90;;;;;;4976177;28;20286;-74
2024/03/14 01:21:47;;;;;;;3.13;2.83;;;11.00;99.90;;;;;;4976598;28;20184;-74
2024/03/14 01:24:13;;;;;;;3.43;2.50;;;11.00;99.90;;;;;;4975200;28;20239;-75
2024/03/14 01:26:40;;;;;;;3.10;2.50;;;10.90;99.90;;;;;;4976635;28;20540;-73
2024/03/14 01:29:06;;;;;;;3.70;3.30;;;10.90;99.90;;;;;;4976543;28;20415;-73
2024/03/14 01:31:33;;;;;;;4.90;3.47;;;10.90;99.90;;;;;;4976135;28;20419;-76
2024/03/14 01:33:58;;;;;;;5.00;3.43;;;10.90;99.90;;;;;;4974117;28;20904;-75
2024/03/14 01:36:24;;;;;;;3.97;3.30;;;10.90;99.90;;;;;;4976149;28;20894;-73
2024/03/14 01:38:51;;;;;;;3.30;2.90;;;10.90;99.90;;;;;;4976290;28;20298;-75
2024/03/14 01:41:20;;;;;;;4.63;3.47;;;10.80;99.90;;;;;;4975159;28;20190;-74
2024/03/14 01:43:56;;;;;;;5.67;3.33;;;10.80;99.90;;;;;;4976550;28;20510;-73
2024/03/14 01:46:23;;;;;;;4.20;3.40;;;10.90;99.90;;;;;;4976081;28;20477;-75
2024/03/14 01:48:49;;;;;;;3.47;3.00;;;10.80;99.90;;;;;;4969357;28;20425;-73
2024/03/14 01:51:15;;;;;;;3.80;3.17;;;10.90;99.90;;;;;;4976055;28;20419;-72
2024/03/14 01:53:40;;;;;;;3.73;3.43;;;10.90;99.90;;;;;;4974548;28;20201;-74
2024/03/14 01:56:07;;;;;;;5.00;3.80;;;10.90;99.90;;;;;;4975401;28;20260;-75
2024/03/14 01:58:33;;;;;;;6.83;5.70;;;10.90;99.90;;;;;;4976081;28;20294;-73
2024/03/14 02:01:00;;;;;;;9.23;6.20;;;10.90;99.90;;;;;;4975812;28;20744;-74
2024/03/14 02:03:26;;;;;;;10.80;5.97;;;10.90;99.90;;;;;;4974746;28;20431;-72
2024/03/14 02:06:10;;;;;;;6.80;6.00;;;10.90;99.90;;;;;;4975825;28;20576;-76
2024/03/14 02:08:36;;;;;;;6.90;5.10;;;10.90;99.90;;;;;;4979103;28;20510;-74
2024/03/14 02:11:01;;;;;;;7.00;5.97;;;10.90;99.90;;;;;;4975696;28;20910;-74
2024/03/14 02:13:27;;;;;;;5.37;4.87;;;10.90;99.90;;;;;;4975502;28;20217;-73
2024/03/14 02:15:53;;;;;;;5.80;4.43;;;10.90;99.90;;;;;;4975341;28;20571;-74
2024/03/14 02:18:19;;;;;;;6.00;4.50;;;10.90;99.90;;;;;;4974031;28;20634;-75
2024/03/14 02:20:44;;;;;;;5.23;4.73;;;10.90;99.90;;;;;;4975785;28;20436;-74
2024/03/14 02:23:10;;;;;;;4.23;3.80;;;10.80;99.90;;;;;;4974999;28;20297;-73
2024/03/14 02:25:35;;;;;;;5.57;4.10;;;10.80;99.90;;;;;;4974990;28;20229;-74
2024/03/14 02:28:02;;;;;;;5.57;4.20;;;10.70;99.90;;;;;;4975741;28;20244;-74
2024/03/14 02:30:28;;;;;;;4.60;3.60;;;10.60;99.90;;;;;;4975048;28;20542;-72
2024/03/14 02:32:53;;;;;;;6.03;4.80;;;10.60;99.90;;;;;;4975338;28;20416;-73
2024/03/14 02:35:19;;;;;;;6.60;4.80;;;10.50;99.90;;;;;;4974664;28;20569;-72
2024/03/14 02:37:44;;;;;;;4.93;4.00;;;10.50;99.90;;;;;;4976849;28;20225;-73
2024/03/14 02:40:11;;;;;;;5.70;4.57;;;10.40;99.90;;;;;;4976375;28;20190;-73
2024/03/14 02:42:37;;;;;;;4.53;3.70;;;10.40;99.90;;;;;;4974590;28;20209;-74
2024/03/14 02:45:06;;;;;;;4.23;3.83;;;10.30;99.90;;;;;;4974615;28;20456;-74
2024/03/14 02:47:31;;;;;;;4.30;3.83;;;10.30;99.90;;;;;;4974959;28;20528;-72
2024/03/14 02:49:57;;;;;;;7.20;4.40;;;10.20;99.90;;;;;;4974461;28;21167;-73
2024/03/14 02:52:23;;;;;;;7.17;4.17;;;10.10;99.90;;;;;;4974655;28;20193;-74
2024/03/14 02:54:48;;;;;;;6.73;4.87;;;10.10;99.90;;;;;;4975676;28;20263;-73
2024/03/14 02:57:14;;;;;;;7.23;5.33;;;10.00;99.90;;;;;;4975759;28;20385;-74
2024/03/14 02:59:40;;;;;;;7.53;5.57;;;10.00;99.90;;;;;;4975265;28;20186;-74
2024/03/14 03:02:10;;;;;;;5.63;4.87;;;9.90;99.90;;;;;;4974612;28;20192;-73
2024/03/14 03:04:37;;;;;;;6.97;4.33;;;9.90;99.90;;;;;;4973999;28;20502;-73
2024/03/14 03:07:05;;;;;;;8.13;4.90;;;9.80;99.90;;;;;;4974921;28;20469;-74
2024/03/14 03:09:31;;;;;;;5.77;4.90;;;9.80;99.90;;;;;;4974310;28;20473;-74
2024/03/14 03:11:59;;;;;;;7.17;5.60;;;9.70;99.90;;;;;;4974831;28;20963;-73
2024/03/14 03:14:25;;;;;;;5.60;4.23;;;9.70;99.90;;;;;;4967440;28;20473;-73
2024/03/14 03:16:52;;;;;;;6.20;5.30;;;9.60;99.90;;;;;;4974929;28;20433;-74
2024/03/14 03:19:18;;;;;;;5.20;4.50;;;9.60;99.90;;;;;;4973955;28;20193;-73
2024/03/14 03:21:43;;;;;;;6.20;5.23;;;9.50;99.90;;;;;;4973560;28;20420;-74
2024/03/14 03:24:11;;;;;;;9.20;4.90;;;9.50;99.90;;;;;;4974327;28;20555;-74
2024/03/14 03:26:37;;;;;;;5.10;4.60;;;9.40;99.90;;;;;;4974423;28;20331;-72
2024/03/14 03:29:03;;;;;;;4.57;4.00;;;9.40;99.90;;;;;;4974007;28;20424;-73
2024/03/14 03:31:29;;;;;;;5.20;4.60;;;9.30;99.90;;;;;;4974666;28;20185;-74
2024/03/14 03:33:56;;;;;;;6.10;5.50;;;9.30;99.90;;;;;;4972115;28;20498;-73
2024/03/14 03:36:22;;;;;;;7.27;5.70;;;9.30;99.90;;;;;;4975544;28;20456;-72
2024/03/14 03:38:48;;;;;;;6.67;5.63;;;9.30;99.90;;;;;;4974719;28;20431;-75
2024/03/14 03:41:14;;;;;;;7.67;6.47;;;9.30;99.90;;;;;;4974761;28;20434;-73
2024/03/14 03:43:40;;;;;;;6.27;4.97;;;9.20;99.90;;;;;;4974207;28;20415;-72
2024/03/14 03:46:09;;;;;;;6.23;5.00;;;9.20;99.90;;;;;;4974266;28;20398;-74
2024/03/14 03:48:37;;;;;;;8.87;5.23;;;9.20;99.90;;;;;;4973529;28;20219;-73
2024/03/14 03:51:04;;;;;;;7.57;5.33;;;9.10;99.90;;;;;;4974628;28;20912;-73
2024/03/14 03:53:32;;;;;;;5.70;5.13;;;9.10;99.90;;;;;;4974434;28;20439;-74
2024/03/14 03:55:59;;;;;;;5.23;4.73;;;9.10;99.90;;;;;;4976147;28;20538;-73
2024/03/14 03:58:25;;;;;;;8.27;4.87;;;9.10;99.90;;;;;;4977803;28;20709;-73
2024/03/14 04:00:52;;;;;;;6.10;4.73;;;9.10;99.90;;;;;;4977077;28;20494;-74
2024/03/14 04:03:20;;;;;;;6.10;4.90;;;9.10;99.90;;;;;;4977379;28;20250;-74
2024/03/14 04:05:46;;;;;;;6.60;5.40;;;9.10;99.90;;;;;;4976747;28;20451;-74
2024/03/14 04:08:14;;;;;;;6.50;5.17;;;9.10;99.90;;;;;;4977644;28;20416;-72
2024/03/14 04:10:41;;;;;;;4.97;4.47;;;9.10;99.90;;;;;;4977567;28;20437;-74
2024/03/14 04:13:10;;;;;;;4.20;3.80;;;9.10;99.90;;;;;;4977375;28;20420;-73
2024/03/14 04:15:36;;;;;;;4.53;3.77;;;9.10;99.90;;;;;;4978404;28;20534;-73
2024/03/14 04:18:05;;;;;;;4.13;3.37;;;9.00;99.90;;;;;;4978116;28;20451;-73
2024/03/14 04:20:30;;;;;;;4.27;3.87;;;9.00;99.90;;;;;;4975796;28;20860;-75
2024/03/14 04:22:59;;;;;;;5.80;3.70;;;9.00;99.90;;;;;;4978231;28;20419;-74
2024/03/14 04:25:25;;;;;;;4.27;3.80;;;9.00;99.90;;;;;;4978066;28;20224;-72
2024/03/14 04:27:53;;;;;;;3.60;3.10;;;9.00;99.90;;;;;;4977568;28;20432;-74
2024/03/14 04:30:27;;;;;;;2.90;2.53;;;9.00;99.90;;;;;;4977377;28;20251;-73
2024/03/14 04:32:54;;;;;;;4.13;3.70;;;9.00;99.90;;;;;;4976820;28;20420;-73
2024/03/14 04:35:22;;;;;;;4.13;3.53;;;8.90;99.90;;;;;;4975856;28;20748;-73
2024/03/14 04:37:49;;;;;;;3.70;3.30;;;8.90;99.90;;;;;;4977153;28;20432;-75
2024/03/14 04:40:17;;;;;;;8.23;4.60;;;8.90;99.90;;;;;;4977137;28;20431;-73
2024/03/14 04:42:46;;;;;;;7.70;5.87;;;8.90;99.90;;;;;;4977546;28;20510;-75
2024/03/14 04:45:22;;;;;;;9.10;4.70;;;8.90;99.90;;;;;;4976888;28;20466;-73
2024/03/14 04:47:48;;;;;;;4.87;4.33;;;8.90;99.90;;;;;;4976897;28;20448;-75
2024/03/14 04:50:21;;;;;;;5.90;5.03;;;8.90;99.90;;;;;;4976541;28;20424;-74
2024/03/14 04:52:51;;;;;;;5.37;4.30;;;8.90;99.90;;;;;;4976637;28;20419;-75
2024/03/14 04:55:17;;;;;;;6.60;4.70;;;8.90;99.90;;;;;;4977241;28;20428;-73
2024/03/14 04:57:43;;;;;;;6.80;5.73;;;8.90;99.90;;;;;;4975898;28;20482;-75
2024/03/14 05:02:55;;;;;;;7.93;5.90;;;8.80;99.90;;;;;;4980491;28;20431;-73
2024/03/14 05:05:21;;;;;;;7.10;5.70;;;8.80;99.90;;;;;;4982589;28;21008;-73
2024/03/14 05:07:48;;;;;;;8.50;5.37;;;8.80;99.90;;;;;;4981774;28;20518;-73
2024/03/14 05:10:14;;;;;;;8.27;5.70;;;8.80;99.90;;;;;;4980746;28;20525;-74
2024/03/14 05:12:40;;;;;;;7.03;5.77;;;8.70;99.90;;;;;;4980481;28;20408;-73
2024/03/14 05:15:07;;;;;;;8.77;5.33;;;8.70;99.90;;;;;;4983146;28;20431;-74
2024/03/14 05:17:34;;;;;;;5.83;4.67;;;8.60;99.90;;;;;;4981646;28;20454;-73
2024/03/14 05:20:00;;;;;;;10.57;5.27;;;8.60;99.90;;;;;;4963310;28;20428;-74
2024/03/14 05:22:31;;;;;;;7.23;5.50;;;8.50;99.90;;;;;;4981525;28;20424;-72
2024/03/14 05:24:58;;;;;;;6.10;5.50;;;8.50;99.90;;;;;;4987707;28;20460;-73
2024/03/14 05:27:27;;;;;;;6.40;5.40;;;8.50;99.90;;;;;;4988285;28;20600;-76
2024/03/14 05:29:53;;;;;;;9.53;6.73;;;8.50;99.90;;;;;;4983101;28;20559;-76
2024/03/14 05:32:23;;;;;;;10.30;5.60;;;8.50;99.90;;;;;;4980936;28;20826;-73
2024/03/14 05:34:49;;;;;;;9.23;6.50;;;8.40;99.90;;;;;;4979469;28;20192;-74
2024/03/14 05:37:15;;;;;;;10.47;6.37;;;8.40;99.90;;;;;;4981991;28;20945;-74
2024/03/14 05:39:41;;;;;;;8.10;6.10;;;8.40;99.90;;;;;;4980489;28;20763;-73
2024/03/14 05:42:12;;;;;;;9.00;6.70;;;8.40;99.90;;;;;;4980768;28;20504;-77
2024/03/14 05:44:39;;;;;;;8.20;6.00;;;8.40;99.90;;;;;;4982619;28;20422;-74
2024/03/14 05:47:05;;;;;;;9.90;6.07;;;8.40;99.90;;;;;;4981057;28;20464;-75
2024/03/14 05:49:30;;;;;;;7.40;6.07;;;8.40;99.90;;;;;;4981369;28;20435;-75
2024/03/14 05:51:56;;;;;;;5.97;5.17;;;8.40;99.90;;;;;;4980792;28;20267;-74
2024/03/14 05:54:21;;;;;;;8.93;6.33;;;8.40;99.90;;;;;;4981381;28;20496;-75
2024/03/14 05:56:48;;;;;;;13.30;6.20;;;8.40;99.90;;;;;;4983640;28;20221;-73
2024/03/14 05:59:13;;;;;;;7.30;6.10;;;8.40;99.90;;;;;;4982858;28;20196;-73
2024/03/14 06:01:41;;;;;;;6.80;6.20;;;8.40;99.90;;;;;;4983380;28;20412;-76
2024/03/14 06:04:08;;;;;;;6.40;5.40;;;8.30;99.90;;;;;;4980619;28;20440;-75
2024/03/14 06:06:34;;;;;;;6.07;5.30;;;8.30;99.90;;;;;;4982192;28;20463;-75
2024/03/14 06:09:01;;;;;;;6.83;5.73;;;8.30;99.90;;;;;;4983215;28;20416;-74
2024/03/14 06:11:26;;;;;;;7.00;6.03;;;8.30;99.90;;;;;;4979016;28;20404;-74
2024/03/14 06:13:53;;;;;;;7.60;5.83;;;8.30;99.90;;;;;;4983689;28;20412;-77
2024/03/14 06:16:18;;;;;;;8.80;6.17;;;8.20;99.90;;;;;;4982714;28;20444;-75
2024/03/14 06:18:45;;;;;;;9.60;6.93;;;8.20;99.90;;;;;;4980798;28;20559;-75
2024/03/14 06:21:11;;;;;;;13.33;7.87;;;8.20;99.90;;;;;;4983743;28;20248;-75
2024/03/14 06:23:36;;;;;;;8.70;6.00;;;8.20;99.90;;;;;;4964702;28;20499;-76
2024/03/14 06:26:04;;;;;;;10.77;7.83;;;8.20;99.90;;;;;;4984221;28;20274;-75
2024/03/14 06:28:30;;;;;;;9.40;7.20;;;8.20;99.90;;;;;;4985444;28;20187;-74
2024/03/14 06:30:55;;;;;;;7.43;6.57;;;8.20;99.90;;;;;;4963515;28;20421;-76
2024/03/14 06:33:21;;;;;;;8.80;6.47;;;8.30;99.90;;;;;;4979833;28;20181;-76
2024/03/14 06:35:48;;;;;;;9.33;6.17;;;8.30;99.90;;;;;;4986184;28;20211;-80
2024/03/14 06:38:14;;;;;;;8.20;5.57;;;8.30;99.90;;;;;;4983866;28;20241;-77
2024/03/14 06:40:40;;;;;;;8.93;6.20;;;8.30;99.90;;;;;;4983900;28;20424;-77
2024/03/14 06:43:06;;;;;;;7.77;6.60;;;8.40;99.90;;;;;;4982739;28;20188;-77
2024/03/14 06:45:33;;;;;;;11.87;8.23;;;8.40;99.90;;;;;;4982983;28;20464;-77
2024/03/14 06:47:59;;;;;;;9.80;7.00;;;8.50;99.90;;;;;;4984864;28;20492;-78
2024/03/14 06:50:25;;;;;;;9.50;7.73;;;8.50;99.90;;;;;;4967592;28;20464;-79
2024/03/14 06:52:51;;;;;;;11.07;6.30;;;8.60;99.90;;;;;;4982489;28;20591;-79
2024/03/14 06:55:16;;;;;;;11.57;8.00;;;8.70;99.90;;;;;;4967530;28;20423;-77
2024/03/14 06:57:45;;;;;;;12.20;8.20;;;8.80;99.90;;;;;;4981010;28;20227;-74
2024/03/14 07:00:16;;;;;;;9.77;7.50;;;8.90;99.90;;;;;;4983781;28;20496;-76
2024/03/14 07:02:44;;;;;;;8.07;7.00;;;9.00;99.90;;;;;;4961161;28;20424;-77
2024/03/14 07:05:10;;;;;;;8.00;6.33;;;9.20;99.90;;;;;;4982126;28;20439;-75
2024/03/14 07:07:36;;;;;;;9.43;7.23;;;9.40;99.90;;;;;;4959136;28;20448;-76
2024/03/14 07:10:02;;;;;;;8.43;7.47;;;9.60;99.90;;;;;;4981345;28;20411;-77
2024/03/14 07:12:28;;;;;;;7.70;6.53;;;9.80;99.90;;;;;;4985052;28;20420;-76
2024/03/14 07:14:54;;;;;;;10.30;7.90;;;10.00;99.90;;;;;;4982953;28;20859;-78
2024/03/14 07:17:19;;;;;;;8.37;6.47;;;10.10;99.90;;;;;;4983304;28;20209;-78
2024/03/14 07:19:45;;;;;;;6.67;5.93;;;10.30;99.90;;;;;;4982324;28;20176;-79
2024/03/14 07:22:11;;;;;;;8.87;6.93;;;10.50;99.90;;;;;;4981932;28;20711;-79
2024/03/14 07:24:38;;;;;;;10.23;7.23;;;10.60;99.90;;;;;;4966941;28;20225;-76
2024/03/14 07:27:03;;;;;;;9.70;7.40;;;10.70;99.90;;;;;;4982667;28;20476;-78
2024/03/14 07:29:33;;;;;;;11.27;6.90;;;10.80;99.90;;;;;;4986033;28;20483;-79
2024/03/14 07:31:59;;;;;;;10.27;6.60;;;10.80;99.90;;;;;;4968288;28;20425;-79
2024/03/14 07:34:25;;;;;;;7.27;6.50;;;10.90;99.90;;;;;;4957149;28;20527;-77
2024/03/14 07:36:51;;;;;;;9.27;7.37;;;10.90;99.90;;;;;;4972140;28;20441;-77
2024/03/14 07:39:16;;;;;;;7.17;5.73;;;10.90;99.90;;;;;;4969041;29;20221;-76
2024/03/14 07:41:42;;;;;;;11.03;6.80;;;11.00;99.90;;;;;;4971923;28;20191;-77
2024/03/14 07:44:08;;;;;;;9.90;6.43;;;11.10;99.90;;;;;;4975095;28;20243;-78
2024/03/14 07:46:37;;;;;;;8.77;6.47;;;11.10;99.90;;;;;;4988163;28;20249;-77
2024/03/14 07:49:03;;;;;;;7.20;5.60;;;11.10;99.90;;;;;;4989161;28;20865;-75
2024/03/14 07:51:28;;;;;;;6.47;5.33;;;11.20;99.90;;;;;;4987830;28;20419;-75
2024/03/14 07:53:56;;;;;;;11.33;6.50;;;11.30;99.90;;;;;;4989260;28;20187;-78
2024/03/14 07:56:27;;;;;;;9.40;7.10;;;11.40;99.90;;;;;;4999259;28;20195;-80
2024/03/14 07:58:56;;;;;;;8.23;6.00;;;11.60;99.90;;;;;;4983705;28;20419;-80
2024/03/14 08:01:22;;;;;;;7.37;6.20;;;11.70;99.90;;;;;;4983316;28;20452;-79
2024/03/14 08:03:52;;;;;;;6.67;5.70;;;11.90;99.90;;;;;;4965528;28;20442;-78
2024/03/14 08:06:18;;;;;;;7.73;6.10;;;12.00;99.90;;;;;;4980910;28;20291;-79
2024/03/14 08:08:47;;;;;;;7.83;6.30;;;12.10;99.90;;;;;;4976412;28;20465;-77
2024/03/14 08:11:17;;;;;;;6.83;6.10;;;12.30;99.90;;;;;;4989006;28;20526;-74
2024/03/14 08:13:43;;;;;;;6.60;6.00;;;12.30;99.90;;;;;;4971825;28;20638;-77
2024/03/14 08:16:14;;;;;;;5.63;4.70;;;12.30;99.90;;;;;;4986360;28;20537;-75
2024/03/14 08:18:41;;;;;;;7.43;5.33;;;12.40;99.90;;;;;;4988744;28;20440;-79
2024/03/14 08:21:14;;;;;;;8.60;5.33;;;12.50;99.90;;;;;;4990791;28;20495;-77
2024/03/14 08:23:45;;;;;;;6.43;5.23;;;12.60;99.90;;;;;;4991200;28;20470;-76
2024/03/14 08:26:12;;;;;;;6.03;5.33;;;12.60;99.90;;;;;;4991036;28;20597;-79
2024/03/14 08:28:41;;;;;;;5.53;4.97;;;12.70;99.90;;;;;;4973490;28;20474;-78
2024/03/14 08:31:14;;;;;;;6.40;5.00;;;12.70;99.90;;;;;;4989969;28;20661;-78
2024/03/14 08:33:50;;;;;;;5.00;4.50;;;12.80;99.90;;;;;;4970554;28;20432;-79
2024/03/14 08:36:17;;;;;;;9.60;5.50;;;12.90;99.90;;;;;;4976187;28;20878;-78
2024/03/14 08:38:44;;;;;;;7.33;5.00;;;12.80;99.90;;;;;;4992208;28;20771;-76
2024/03/14 08:41:13;;;;;;;4.50;4.10;;;12.80;99.90;;;;;;4971057;28;20436;-77
2024/03/14 08:43:40;;;;;;;4.87;3.93;;;12.80;99.90;;;;;;4988018;28;20752;-78
2024/03/14 08:46:09;;;;;;;5.80;4.33;;;12.90;99.90;;;;;;4976518;28;20475;-77
2024/03/14 08:48:54;;;;;;;4.57;4.10;;;13.00;99.90;;;;;;4956007;29;20459;-77
2024/03/14 08:51:22;;;;;;;5.13;3.87;;;13.10;99.90;;;;;;4934243;29;20429;-81
2024/03/14 08:56:35;;;;;;;3.90;3.50;;;13.00;99.90;;;;;;4936254;29;20465;-78
2024/03/14 08:59:04;;;;;;;3.60;3.13;;;13.00;99.90;;;;;;4952294;29;20186;-77
2024/03/14 09:01:35;;;;;;;5.80;3.90;;;13.10;99.90;;;;;;4935139;29;20433;-77
2024/03/14 09:04:04;;;;;;;3.77;3.00;;;13.10;99.90;;;;;;4936380;29;20469;-79
2024/03/14 09:06:31;;;;;;;3.13;2.50;;;13.10;99.90;;;;;;4935580;29;20540;-79
2024/03/14 09:09:03;;;;;;;3.97;3.57;;;13.10;99.90;;;;;;4934822;29;20425;-76
2024/03/14 09:11:32;;;;;;;4.00;3.10;;;13.10;99.90;;;;;;4935318;29;20422;-77
2024/03/14 09:13:58;;;;;;;3.90;3.33;;;13.20;99.90;;;;;;4968895;28;20428;-78
2024/03/14 09:16:26;;;;;;;4.10;3.70;;;13.20;99.90;;;;;;4971574;28;20443;-79
2024/03/14 09:18:52;;;;;;;5.10;3.60;;;13.20;99.90;;;;;;4976550;28;20416;-76
2024/03/14 09:21:19;;;;;;;5.37;3.77;;;13.20;99.90;;;;;;4990903;28;20708;-78
2024/03/14 09:23:45;;;;;;;4.47;3.47;;;13.30;99.90;;;;;;4991174;28;20459;-77
2024/03/14 09:26:12;;;;;;;5.23;3.50;;;13.40;99.90;;;;;;4973246;28;20468;-79
2024/03/14 09:28:40;;;;;;;5.13;4.30;;;13.50;99.90;;;;;;4974319;28;20451;-77
2024/03/14 09:31:08;;;;;;;5.30;4.03;;;13.60;99.90;;;;;;4969483;29;20420;-77
2024/03/14 09:33:37;;;;;;;4.20;3.00;;;13.70;99.90;;;;;;4986810;28;20747;-79
2024/03/14 09:36:04;;;;;;;3.57;2.80;;;13.70;99.90;;;;;;4988288;28;20455;-78
2024/03/14 09:38:32;;;;;;;6.77;3.90;;;13.80;99.90;;;;;;4986703;28;20424;-73
2024/03/14 09:41:04;;;;;;;4.30;3.90;;;14.00;99.90;;;;;;4983964;28;20457;-75
2024/03/14 09:43:30;;;;;;;3.43;2.73;;;14.10;99.90;;;;;;4983817;28;20256;-76
2024/03/14 09:45:56;;;;;;;5.00;2.90;;;14.20;99.90;;;;;;4983750;28;20483;-74
2024/03/14 09:48:25;;;;;;;5.50;3.97;;;14.30;99.90;;;;;;4986259;28;20216;-75
2024/03/14 09:50:53;;;;;;;6.00;4.30;;;14.50;99.90;;;;;;4963940;29;20231;-75
2024/03/14 09:53:21;;;;;;;4.40;3.50;;;14.60;99.90;;;;;;4983034;28;20440;-74
2024/03/14 09:55:47;;;;;;;4.43;3.67;;;14.70;99.90;;;;;;4987104;28;20467;-75
2024/03/14 09:58:14;;;;;;;5.50;4.20;;;14.80;99.90;;;;;;4985026;28;20471;-74
2024/03/14 10:00:40;;;;;;;6.23;4.17;;;14.90;99.90;;;;;;4983900;28;20195;-77
2024/03/14 10:03:07;;;;;;;6.53;4.00;;;14.80;99.90;;;;;;4970097;28;20672;-76
2024/03/14 10:05:35;;;;;;;3.83;3.43;;;14.80;99.90;;;;;;4984731;28;20474;-74
2024/03/14 10:08:02;;;;;;;4.10;2.97;;;14.70;99.90;;;;;;4984979;28;20463;-75
2024/03/14 10:10:34;;;;;;;5.90;4.40;;;14.70;99.90;;;;;;4985499;28;20420;-74
2024/03/14 10:12:59;;;;;;;4.47;3.87;;;14.80;99.90;;;;;;4964529;29;20694;-72
2024/03/14 10:15:27;;;;;;;4.93;4.03;;;14.90;99.90;;;;;;4952636;29;20424;-77
2024/03/14 10:17:53;;;;;;;7.40;4.10;;;14.90;99.90;;;;;;4982937;28;20224;-75
2024/03/14 10:20:19;;;;;;;4.87;3.60;;;15.00;99.90;;;;;;4984543;28;20447;-75
2024/03/14 10:22:48;;;;;;;3.43;2.90;;;15.10;99.90;;;;;;4985055;28;20392;-74
2024/03/14 10:25:17;;;;;;;7.87;3.93;;;15.10;99.90;;;;;;4985855;28;20412;-76
2024/03/14 10:27:48;;;;;;;4.87;3.37;;;15.20;99.90;;;;;;4984388;28;20450;-73
2024/03/14 10:30:18;;;;;;;5.57;3.70;;;15.20;99.90;;;;;;4982566;28;20412;-74
2024/03/14 10:32:46;;;;;;;5.10;3.40;;;15.30;99.90;;;;;;4980963;28;20568;-76
2024/03/14 10:35:14;;;;;;;5.07;3.43;;;15.30;99.90;;;;;;4981430;28;20423;-74
2024/03/14 10:37:41;;;;;;;6.70;3.33;;;15.30;99.90;;;;;;4982493;28;20463;-72
2024/03/14 10:40:29;;;;;;;4.27;3.23;;;15.20;99.80;;;;;;4981209;28;20498;-74
2024/03/14 10:42:55;;;;;;;3.40;2.80;;;15.20;98.80;;;;;;4981592;28;20434;-76
2024/03/14 10:45:23;;;;;;;3.40;2.60;;;15.30;99.30;;;;;;4983353;28;20434;-75
2024/03/14 10:47:50;;;;;;;3.83;2.57;;;15.30;99.00;;;;;;4983721;28;20452;-78
2024/03/14 10:50:17;;;;;;;4.20;3.23;;;15.30;97.80;;;;;;4983791;28;20424;-77
2024/03/14 10:52:50;;;;;;;3.60;2.80;;;15.30;96.70;;;;;;4989378;28;20440;-78
2024/03/14 10:55:24;;;;;;;4.10;3.50;;;15.30;97.00;;;;;;4986219;28;20416;-78
2024/03/14 10:57:51;;;;;;;4.27;3.23;;;15.30;97.00;;;;;;4990592;28;20438;-77
2024/03/14 11:00:19;;;;;;;3.20;2.87;;;15.30;96.90;;;;;;4973658;28;20447;-78
2024/03/14 11:02:49;;;;;;;3.83;3.50;;;15.20;97.30;;;;;;4989697;28;20412;-78
2024/03/14 11:05:22;;;;;;;5.00;4.27;;;15.20;97.40;;;;;;4992027;28;20417;-77
2024/03/14 11:07:53;;;;;;;5.70;4.27;;;15.30;97.30;;;;;;4995297;28;20556;-76
2024/03/14 11:10:28;;;;;;;5.27;4.73;;;15.40;97.50;;;;;;4992152;28;20489;-77
2024/03/14 11:13:01;;;;;;;5.10;4.30;;;15.50;97.10;;;;;;4988118;28;20540;-79
2024/03/14 11:15:28;;;;;;;4.77;4.10;;;15.60;96.90;;;;;;4977446;28;20521;-79
2024/03/14 11:17:59;;;;;;;6.47;4.10;;;15.80;96.60;;;;;;4996249;28;20420;-78
2024/03/14 11:20:32;;;;;;;5.30;4.80;;;16.00;96.50;;;;;;4978671;28;20426;-78
2024/03/14 11:23:03;;;;;;;6.20;5.20;;;16.10;95.50;;;;;;4977891;28;20440;-77
2024/03/14 11:25:32;;;;;;;5.23;4.67;;;16.20;95.00;;;;;;4993303;28;20467;-78
2024/03/14 11:28:01;;;;;;;7.30;4.90;;;16.20;94.70;;;;;;4993057;28;20495;-77
2024/03/14 11:30:27;;;;;;;6.67;5.47;;;16.30;94.20;;;;;;4977827;28;20412;-78
2024/03/14 11:32:55;;;;;;;6.53;4.80;;;16.30;93.70;;;;;;4993674;28;20428;-77
2024/03/14 11:35:40;;;;;;;6.13;4.10;;;16.30;92.80;;;;;;4975178;28;20228;-76
2024/03/14 11:38:15;;;;;;;3.77;3.47;;;16.30;93.00;;;;;;4989486;28;20439;-76
2024/03/14 11:41:02;;;;;;;6.80;4.47;;;16.10;92.50;;;;;;4993457;28;20825;-78
2024/03/14 11:43:28;;;;;;;5.00;4.40;;;16.00;92.90;;;;;;4993039;28;20457;-75
2024/03/14 11:46:04;;;;;;;4.17;3.77;;;16.00;92.70;;;;;;4975736;28;20529;-74
2024/03/14 11:48:31;;;;;;;5.60;4.50;;;15.90;92.90;;;;;;4991020;28;20450;-78
2024/03/14 11:51:03;;;;;;;5.13;3.80;;;15.80;93.30;;;;;;4992956;28;20504;-78
2024/03/14 11:53:31;;;;;;;5.10;3.53;;;15.80;93.70;;;;;;4995605;28;20418;-77
2024/03/14 11:55:58;;;;;;;6.30;4.20;;;15.80;93.70;;;;;;4995917;28;20449;-77
2024/03/14 11:58:24;;;;;;;4.07;3.70;;;15.80;93.70;;;;;;4978501;28;20422;-76
2024/03/14 12:00:53;;;;;;;3.57;3.00;;;15.80;93.40;;;;;;4976046;29;20873;-77
2024/03/14 12:03:22;;;;;;;4.00;3.33;;;15.90;93.30;;;;;;4981011;28;20417;-77
2024/03/14 12:05:55;;;;;;;4.87;3.10;;;15.90;92.90;;;;;;4994632;28;20464;-77
2024/03/14 12:08:22;;;;;;;3.40;3.10;;;15.80;93.10;;;;;;4979960;28;20436;-75
2024/03/14 12:10:54;;;;;;;4.37;3.70;;;15.90;93.20;;;;;;4992599;28;20425;-76
2024/03/14 12:13:23;;;;;;;6.03;3.80;;;15.90;93.00;;;;;;4990321;28;20412;-76
2024/03/14 12:16:02;;;;;;;8.20;4.03;;;15.90;93.10;;;;;;4970674;28;20946;-76
2024/03/14 12:18:29;;;;;;;4.20;3.17;;;15.90;92.70;;;;;;4988748;28;20429;-75
2024/03/14 12:20:55;;;;;;;4.40;3.97;;;15.80;92.90;;;;;;4972223;28;20499;-77
2024/03/14 12:23:22;;;;;;;3.40;3.10;;;15.80;93.50;;;;;;4988952;28;20519;-76
2024/03/14 12:25:53;;;;;;;3.80;3.50;;;15.90;93.30;;;;;;4990606;28;20220;-75
2024/03/14 12:28:19;;;;;;;4.73;3.30;;;15.90;93.20;;;;;;4992166;28;20464;-76
2024/03/14 12:30:56;;;;;;;4.07;3.70;;;15.90;93.10;;;;;;4990044;28;20421;-76
2024/03/14 12:33:23;;;;;;;4.93;3.23;;;15.80;93.00;;;;;;4989268;28;20453;-77
2024/03/14 12:35:52;;;;;;;4.20;3.80;;;15.90;93.20;;;;;;4971885;28;20442;-74
2024/03/14 12:38:22;;;;;;;4.50;3.17;;;15.90;93.30;;;;;;4987247;28;20430;-74
2024/03/14 12:40:49;;;;;;;4.07;3.40;;;15.90;93.30;;;;;;4987664;28;20457;-75
2024/03/14 12:43:16;;;;;;;4.57;3.67;;;15.90;93.40;;;;;;4968499;28;20424;-74
2024/03/14 12:45:44;;;;;;;4.63;4.00;;;15.90;93.40;;;;;;4986643;28;20455;-78
2024/03/14 12:48:13;;;;;;;5.23;3.40;;;15.90;93.00;;;;;;4993115;28;20412;-76
2024/03/14 12:50:39;;;;;;;4.60;3.67;;;15.80;93.20;;;;;;4977946;28;20416;-78
2024/03/14 12:53:12;;;;;;;4.13;3.73;;;15.80;93.30;;;;;;4993473;28;20426;-77
2024/03/14 12:55:38;;;;;;;5.97;3.33;;;15.80;93.30;;;;;;4993420;28;20471;-80
2024/03/14 12:58:20;;;;;;;3.70;3.23;;;15.80;93.50;;;;;;4977978;28;20467;-78